createdAt,value
2023-03-20T00:00:21.031Z,100.00
2023-03-20T00:02:53.205Z,100.00
2023-03-20T00:05:24.871Z,100.00
2023-03-20T00:07:55.292Z,100.00
2023-03-20T00:10:27.698Z,100.00
2023-03-20T00:12:57.445Z,100.00
2023-03-20T00:15:30.485Z,100.00
2023-03-20T00:18:02.717Z,100.00
2023-03-20T00:20:32.349Z,100.00
2023-03-20T00:23:02.788Z,100.00
2023-03-20T00:25:32.930Z,100.00
2023-03-20T00:28:02.791Z,100.00
2023-03-20T00:30:34.612Z,100.00
2023-03-20T00:33:07.095Z,100.00
2023-03-20T00:35:37.226Z,100.00
2023-03-20T00:38:07.354Z,100.00
2023-03-20T00:40:37.857Z,100.00
2023-03-20T00:43:07.622Z,100.00
2023-03-20T00:45:38.370Z,100.00
2023-03-20T00:48:17.051Z,100.00
2023-03-20T00:50:47.741Z,100.00
2023-03-20T00:53:17.333Z,100.00
2023-03-20T00:55:46.930Z,100.00
2023-03-20T00:58:16.613Z,100.00
2023-03-20T01:00:47.925Z,100.00
2023-03-20T01:03:22.189Z,100.00
2023-03-20T01:05:53.067Z,100.00
2023-03-20T01:08:24.788Z,100.00
2023-03-20T01:10:57.573Z,100.00
2023-03-20T01:13:29.282Z,100.00
2023-03-20T01:16:00.610Z,100.00
2023-03-20T01:18:33.000Z,100.00
2023-03-20T01:21:03.043Z,100.00
2023-03-20T01:23:32.648Z,100.00
2023-03-20T01:26:02.258Z,100.00
2023-03-20T01:28:33.604Z,100.00
2023-03-20T01:31:03.316Z,100.00
2023-03-20T01:33:37.008Z,100.00
2023-03-20T01:36:07.220Z,100.00
2023-03-20T01:38:36.940Z,100.00
2023-03-20T01:41:10.250Z,100.00
2023-03-20T01:43:42.427Z,100.00
2023-03-20T01:46:22.799Z,100.00
2023-03-20T01:49:09.730Z,100.00
2023-03-20T01:51:39.595Z,100.00
2023-03-20T01:54:18.398Z,100.00
2023-03-20T01:57:03.052Z,100.00
2023-03-20T01:59:38.009Z,100.00
2023-03-20T02:02:09.421Z,100.00
2023-03-20T02:04:47.169Z,100.00
2023-03-20T02:07:21.480Z,100.00
2023-03-20T02:10:07.946Z,100.00
2023-03-20T02:12:44.646Z,100.00
2023-03-20T02:15:19.572Z,100.00
2023-03-20T02:18:03.999Z,100.00
2023-03-20T02:20:53.000Z,100.00
2023-03-20T02:24:08.988Z,100.00
2023-03-20T02:26:57.778Z,100.00
2023-03-20T02:29:58.087Z,100.00
2023-03-20T02:32:58.353Z,100.00
2023-03-20T02:35:52.034Z,100.00
2023-03-20T02:38:38.230Z,100.00
2023-03-20T02:41:15.893Z,100.00
2023-03-20T02:43:54.846Z,100.00
2023-03-20T02:46:35.823Z,100.00
2023-03-20T02:49:26.497Z,100.00
2023-03-20T02:52:03.421Z,100.00
2023-03-20T02:54:43.882Z,100.00
2023-03-20T02:57:22.169Z,100.00
2023-03-20T02:59:59.713Z,100.00
2023-03-20T03:02:37.212Z,100.00
2023-03-20T03:05:12.087Z,100.00
2023-03-20T03:07:45.625Z,100.00
2023-03-20T03:10:22.419Z,100.00
2023-03-20T03:12:54.394Z,100.00
2023-03-20T03:15:30.846Z,100.00
2023-03-20T03:18:02.972Z,100.00
2023-03-20T03:20:35.410Z,100.00
2023-03-20T03:23:06.706Z,100.00
2023-03-20T03:25:42.180Z,100.00
2023-03-20T03:28:24.417Z,100.00
2023-03-20T03:30:54.871Z,100.00
2023-03-20T03:33:27.848Z,100.00
2023-03-20T03:36:11.187Z,100.00
2023-03-20T03:38:47.673Z,100.00
2023-03-20T03:41:27.470Z,100.00
2023-03-20T03:44:04.934Z,100.00
2023-03-20T03:46:44.749Z,100.00
2023-03-20T03:49:23.426Z,100.00
2023-03-20T03:51:58.563Z,100.00
2023-03-20T03:54:32.938Z,100.00
2023-03-20T03:57:30.869Z,100.00
2023-03-20T04:00:01.898Z,100.00
2023-03-20T04:02:32.153Z,100.00
2023-03-20T04:05:04.834Z,100.00
2023-03-20T04:07:34.571Z,100.00
2023-03-20T04:10:04.183Z,100.00
2023-03-20T04:12:39.490Z,100.00
2023-03-20T04:15:13.661Z,100.00
2023-03-20T04:17:43.589Z,100.00
2023-03-20T04:20:16.238Z,100.00
2023-03-20T04:22:45.834Z,100.00
2023-03-20T04:25:20.591Z,100.00
2023-03-20T04:27:54.210Z,100.00
2023-03-20T04:30:39.439Z,100.00
2023-03-20T04:33:35.017Z,100.00
2023-03-20T04:36:33.983Z,100.00
2023-03-20T04:39:05.137Z,100.00
2023-03-20T04:41:34.819Z,100.00
2023-03-20T04:44:08.324Z,100.00
2023-03-20T04:46:38.654Z,100.00
2023-03-20T04:49:16.206Z,100.00
2023-03-20T04:51:45.840Z,100.00
2023-03-20T04:54:17.207Z,100.00
2023-03-20T04:56:47.115Z,100.00
2023-03-20T04:59:24.841Z,100.00
2023-03-20T05:01:54.447Z,100.00
2023-03-20T05:04:25.614Z,100.00
2023-03-20T05:06:55.320Z,100.00
2023-03-20T05:09:28.281Z,100.00
2023-03-20T05:11:58.968Z,100.00
2023-03-20T05:14:51.494Z,100.00
2023-03-20T05:17:39.612Z,100.00
2023-03-20T05:20:24.246Z,100.00
2023-03-20T05:23:06.627Z,100.00
2023-03-20T05:25:56.103Z,100.00
2023-03-20T05:28:48.584Z,100.00
2023-03-20T05:31:43.882Z,100.00
2023-03-20T05:34:22.129Z,100.00
2023-03-20T05:37:04.025Z,100.00
2023-03-20T05:39:44.323Z,100.00
2023-03-20T05:42:32.387Z,100.00
2023-03-20T05:45:04.798Z,100.00
2023-03-20T05:47:51.036Z,100.00
2023-03-20T05:50:39.059Z,100.00
2023-03-20T05:53:44.006Z,100.00
2023-03-20T05:56:26.109Z,100.00
2023-03-20T05:59:25.022Z,100.00
2023-03-20T06:02:13.488Z,100.00
2023-03-20T06:04:52.114Z,100.00
2023-03-20T06:07:33.136Z,100.00
2023-03-20T06:10:07.226Z,100.00
2023-03-20T06:12:36.870Z,100.00
2023-03-20T06:15:08.304Z,100.00
2023-03-20T06:17:42.898Z,100.00
2023-03-20T06:20:18.182Z,100.00
2023-03-20T06:22:48.260Z,100.00
2023-03-20T06:25:19.496Z,100.00
2023-03-20T06:27:49.735Z,100.00
2023-03-20T06:30:21.146Z,100.00
2023-03-20T06:32:52.998Z,100.00
2023-03-20T06:35:31.185Z,100.00
2023-03-20T06:38:01.512Z,100.00
2023-03-20T06:40:31.975Z,100.00
2023-03-20T06:43:01.848Z,100.00
2023-03-20T06:45:49.187Z,100.00
2023-03-20T06:48:24.155Z,100.00
2023-03-20T06:50:57.254Z,100.00
2023-03-20T06:53:32.236Z,100.00
2023-03-20T06:56:07.940Z,100.00
2023-03-20T06:58:37.593Z,100.00
2023-03-20T07:01:12.126Z,100.00
2023-03-20T07:03:42.795Z,100.00
2023-03-20T07:06:15.786Z,100.00
2023-03-20T07:08:45.557Z,100.00
2023-03-20T07:11:15.458Z,100.00
2023-03-20T07:13:45.095Z,100.00
2023-03-20T07:16:25.050Z,100.00
2023-03-20T07:18:55.348Z,100.00
2023-03-20T07:21:28.139Z,100.00
2023-03-20T07:23:58.118Z,100.00
2023-03-20T07:26:28.593Z,100.00
2023-03-20T07:28:58.216Z,100.00
2023-03-20T07:31:32.358Z,100.00
2023-03-20T07:34:28.342Z,100.00
2023-03-20T07:37:01.478Z,100.00
2023-03-20T07:39:32.216Z,100.00
2023-03-20T07:42:22.378Z,100.00
2023-03-20T07:45:00.132Z,100.00
2023-03-20T07:47:29.920Z,100.00
2023-03-20T07:49:59.581Z,100.00
2023-03-20T07:52:31.720Z,100.00
2023-03-20T07:55:01.307Z,100.00
2023-03-20T07:57:31.302Z,100.00
2023-03-20T08:00:01.042Z,100.00
2023-03-20T08:02:30.900Z,100.00
2023-03-20T08:05:00.590Z,100.00
2023-03-20T08:07:33.086Z,100.00
2023-03-20T08:10:03.533Z,100.00
2023-03-20T08:12:33.128Z,100.00
2023-03-20T08:15:02.723Z,100.00
2023-03-20T08:17:32.601Z,100.00
2023-03-20T08:20:02.259Z,100.00
2023-03-20T08:22:34.430Z,100.00
2023-03-20T08:25:04.058Z,100.00
2023-03-20T08:27:34.081Z,100.00
2023-03-20T08:30:03.691Z,100.00
2023-03-20T08:32:33.675Z,100.00
2023-03-20T08:35:03.480Z,100.00
2023-03-20T08:37:35.628Z,100.00
2023-03-20T08:40:06.257Z,100.00
2023-03-20T08:42:35.916Z,100.00
2023-03-20T08:45:05.626Z,100.00
2023-03-20T08:47:35.409Z,100.00
2023-03-20T08:50:05.006Z,100.00
2023-03-20T08:52:37.297Z,100.00
2023-03-20T08:55:08.156Z,100.00
2023-03-20T08:57:39.282Z,100.00
2023-03-20T09:00:12.163Z,100.00
2023-03-20T09:02:41.980Z,100.00
2023-03-20T09:05:12.573Z,100.00
2023-03-20T09:07:44.898Z,100.00
2023-03-20T09:10:15.662Z,100.00
2023-03-20T09:12:45.564Z,100.00
2023-03-20T09:15:15.340Z,100.00
2023-03-20T09:17:45.028Z,100.00
2023-03-20T09:20:14.855Z,100.00
2023-03-20T09:22:47.046Z,100.00
2023-03-20T09:25:16.874Z,100.00
2023-03-20T09:27:46.677Z,100.00
2023-03-20T09:30:17.079Z,100.00
2023-03-20T09:32:46.774Z,100.00
2023-03-20T09:35:16.923Z,100.00
2023-03-20T09:37:49.289Z,100.00
2023-03-20T09:40:27.731Z,100.00
2023-03-20T09:43:09.938Z,100.00
2023-03-20T09:45:54.415Z,100.00
2023-03-20T09:48:31.295Z,100.00
2023-03-20T09:51:09.998Z,100.00
2023-03-20T09:53:44.986Z,100.00
2023-03-20T09:56:20.308Z,100.00
2023-03-20T09:58:56.916Z,100.00
2023-03-20T10:01:30.023Z,100.00
2023-03-20T10:04:03.272Z,100.00
2023-03-20T10:06:33.081Z,100.00
2023-03-20T10:09:06.206Z,100.00
2023-03-20T10:12:04.848Z,100.00
2023-03-20T10:14:41.936Z,100.00
2023-03-20T10:17:23.672Z,100.00
2023-03-20T10:19:59.725Z,100.00
2023-03-20T10:22:34.137Z,100.00
2023-03-20T10:25:11.428Z,100.00
2023-03-20T10:27:42.776Z,100.00
2023-03-20T10:30:29.136Z,100.00
2023-03-20T10:33:11.756Z,100.00
2023-03-20T10:35:48.558Z,100.00
2023-03-20T10:38:30.089Z,100.00
2023-03-20T10:41:02.385Z,100.00
2023-03-20T10:43:38.177Z,100.00
2023-03-20T10:46:14.198Z,100.00
2023-03-20T10:48:47.954Z,100.00
2023-03-20T10:51:20.812Z,100.00
2023-03-20T10:53:54.630Z,100.00
2023-03-20T10:56:33.385Z,100.00
2023-03-20T10:59:08.541Z,100.00
2023-03-20T11:01:38.136Z,100.00
2023-03-20T11:04:08.179Z,100.00
2023-03-20T11:06:44.651Z,100.00
2023-03-20T11:09:19.743Z,100.00
2023-03-20T11:11:55.136Z,100.00
2023-03-20T11:14:27.582Z,100.00
2023-03-20T11:16:58.878Z,100.00
2023-03-20T11:19:28.836Z,100.00
2023-03-20T11:22:00.344Z,100.00
2023-03-20T11:24:37.507Z,100.00
2023-03-20T11:27:17.793Z,100.00
2023-03-20T11:29:51.179Z,100.00
2023-03-20T11:32:29.905Z,100.00
2023-03-20T11:35:01.151Z,100.00
2023-03-20T11:37:37.027Z,100.00
2023-03-20T11:40:13.220Z,100.00
2023-03-20T11:42:55.322Z,100.00
2023-03-20T11:45:25.738Z,100.00
2023-03-20T11:47:59.260Z,100.00
2023-03-20T11:50:34.307Z,100.00
2023-03-20T11:53:04.932Z,100.00
2023-03-20T11:55:36.210Z,100.00
2023-03-20T11:58:16.880Z,100.00
2023-03-20T12:00:53.696Z,100.00
2023-03-20T12:03:49.499Z,100.00
2023-03-20T12:06:21.778Z,100.00
2023-03-20T12:08:55.805Z,100.00
2023-03-20T12:11:43.371Z,100.00
2023-03-20T12:14:25.121Z,100.00
2023-03-20T12:16:59.803Z,100.00
2023-03-20T12:19:32.930Z,100.00
2023-03-20T12:22:09.976Z,100.00
2023-03-20T12:24:44.686Z,100.00
2023-03-20T12:27:22.677Z,100.00
2023-03-20T12:30:01.184Z,100.00
2023-03-20T12:32:37.161Z,100.00
2023-03-20T12:35:16.674Z,100.00
2023-03-20T12:37:46.542Z,100.00
2023-03-20T12:40:21.976Z,100.00
2023-03-20T12:43:02.855Z,100.00
2023-03-20T12:45:44.245Z,100.00
2023-03-20T12:48:38.866Z,100.00
2023-03-20T12:51:19.798Z,100.00
2023-03-20T12:54:03.612Z,100.00
2023-03-20T12:56:50.762Z,100.00
2023-03-20T12:59:29.232Z,100.00
2023-03-20T13:02:12.055Z,100.00
2023-03-20T13:04:59.941Z,100.00
2023-03-20T13:07:46.843Z,100.00
2023-03-20T13:10:23.815Z,100.00
2023-03-20T13:13:06.158Z,100.00
2023-03-20T13:15:50.913Z,99.76
2023-03-20T13:18:31.401Z,100.00
2023-03-20T13:21:06.233Z,99.79
2023-03-20T13:23:43.937Z,98.74
2023-03-20T13:26:25.690Z,97.49
2023-03-20T13:29:03.021Z,98.07
2023-03-20T13:31:44.932Z,98.78
2023-03-20T13:34:31.729Z,97.81
2023-03-20T13:37:23.980Z,97.94
2023-03-20T13:40:06.556Z,97.87
2023-03-20T13:42:41.419Z,98.90
2023-03-20T13:45:33.799Z,99.97
2023-03-20T13:48:09.926Z,99.94
2023-03-20T13:50:48.825Z,99.18
2023-03-20T13:53:29.412Z,100.00
2023-03-20T13:56:07.942Z,99.37
2023-03-20T13:58:56.359Z,100.00
2023-03-20T14:01:34.046Z,99.75
2023-03-20T14:04:05.459Z,98.08
2023-03-20T14:06:53.000Z,95.71
2023-03-20T14:09:43.592Z,97.15
2023-03-20T14:12:15.724Z,97.36
2023-03-20T14:14:49.427Z,96.53
2023-03-20T14:17:22.567Z,97.61
2023-03-20T14:19:54.642Z,99.28
2023-03-20T14:22:31.767Z,95.85
2023-03-20T14:25:06.810Z,95.64
2023-03-20T14:27:44.754Z,95.20
2023-03-20T14:30:46.046Z,96.57
2023-03-20T14:33:32.713Z,98.42
2023-03-20T14:36:21.979Z,97.24
2023-03-20T14:39:15.039Z,98.50
2023-03-20T14:41:59.557Z,97.21
2023-03-20T14:44:44.654Z,97.79
2023-03-20T14:47:25.097Z,96.77
2023-03-20T14:49:58.564Z,96.95
2023-03-20T14:52:36.337Z,95.49
2023-03-20T14:55:33.183Z,92.31
2023-03-20T14:58:28.828Z,92.01
2023-03-20T15:01:03.900Z,92.11
2023-03-20T15:03:34.630Z,92.61
2023-03-20T15:06:08.137Z,93.07
2023-03-20T15:08:40.325Z,93.80
2023-03-20T15:11:16.267Z,91.24
2023-03-20T15:13:47.110Z,89.56
2023-03-20T15:16:18.180Z,89.94
2023-03-20T15:18:50.184Z,87.14
2023-03-20T15:21:21.452Z,88.11
2023-03-20T15:23:51.583Z,88.28
2023-03-20T15:26:26.166Z,89.14
2023-03-20T15:29:02.486Z,88.60
2023-03-20T15:31:34.818Z,88.24
2023-03-20T15:34:08.239Z,87.96
2023-03-20T15:36:39.729Z,86.89
2023-03-20T15:39:16.650Z,86.68
2023-03-20T15:41:54.045Z,86.12
2023-03-20T15:44:25.718Z,85.17
2023-03-20T15:46:59.125Z,85.89
2023-03-20T15:49:29.904Z,84.96
2023-03-20T15:52:02.805Z,84.23
2023-03-20T15:54:33.259Z,86.17
2023-03-20T15:57:06.507Z,87.29
2023-03-20T15:59:37.131Z,87.70
2023-03-20T16:02:07.236Z,87.57
2023-03-20T16:04:37.423Z,88.77
2023-03-20T16:07:07.406Z,89.98
2023-03-20T16:09:45.885Z,89.65
2023-03-20T16:12:21.612Z,89.26
2023-03-20T16:14:53.410Z,89.38
2023-03-20T16:17:25.614Z,89.30
2023-03-20T16:19:56.249Z,88.46
2023-03-20T16:22:29.498Z,87.96
2023-03-20T16:25:03.021Z,89.04
2023-03-20T16:27:37.449Z,89.44
2023-03-20T16:30:10.121Z,88.96
2023-03-20T16:32:42.482Z,88.88
2023-03-20T16:35:20.551Z,88.20
2023-03-20T16:37:55.621Z,88.32
2023-03-20T16:40:32.425Z,87.74
2023-03-20T16:43:13.024Z,87.32
2023-03-20T16:45:45.062Z,87.76
2023-03-20T16:48:28.464Z,89.29
2023-03-20T16:51:02.318Z,89.22
2023-03-20T16:53:39.085Z,89.46
2023-03-20T16:56:14.099Z,89.72
2023-03-20T16:58:48.598Z,89.13
2023-03-20T17:01:21.518Z,88.75
2023-03-20T17:03:55.152Z,88.08
2023-03-20T17:06:46.293Z,88.13
2023-03-20T17:09:26.325Z,89.71
2023-03-20T17:12:03.999Z,89.78
2023-03-20T17:14:36.492Z,89.59
2023-03-20T17:17:06.417Z,90.58
2023-03-20T17:19:36.549Z,90.97
2023-03-20T17:22:14.725Z,91.72
2023-03-20T17:24:44.606Z,91.70
2023-03-20T17:27:16.071Z,91.85
2023-03-20T17:29:49.799Z,93.65
2023-03-20T17:32:23.912Z,94.37
2023-03-20T17:34:53.891Z,93.41
2023-03-20T17:37:29.668Z,94.31
2023-03-20T17:40:00.920Z,95.22
2023-03-20T17:42:33.446Z,95.42
2023-03-20T17:45:05.983Z,96.89
2023-03-20T17:47:35.643Z,96.64
2023-03-20T17:50:05.457Z,98.96
2023-03-20T17:52:35.431Z,99.47
2023-03-20T17:55:05.061Z,100.00
2023-03-20T17:57:37.068Z,100.00
2023-03-20T18:00:12.092Z,100.00
2023-03-20T18:02:42.083Z,100.00
2023-03-20T18:05:12.937Z,100.00
2023-03-20T18:07:42.792Z,100.00
2023-03-20T18:10:23.484Z,100.00
2023-03-20T18:12:53.234Z,100.00
2023-03-20T18:15:26.141Z,100.00
2023-03-20T18:17:57.163Z,100.00
2023-03-20T18:20:29.898Z,100.00
2023-03-20T18:23:00.299Z,100.00
2023-03-20T18:25:30.424Z,100.00
2023-03-20T18:28:01.832Z,100.00
2023-03-20T18:30:37.713Z,100.00
2023-03-20T18:33:08.642Z,100.00
2023-03-20T18:35:39.497Z,100.00
2023-03-20T18:38:09.414Z,100.00
2023-03-20T18:40:40.074Z,100.00
2023-03-20T18:43:10.031Z,100.00
2023-03-20T18:45:42.721Z,100.00
2023-03-20T18:48:14.881Z,100.00
2023-03-20T18:50:50.924Z,100.00
2023-03-20T18:53:21.358Z,100.00
2023-03-20T18:55:51.118Z,100.00
2023-03-20T18:58:24.688Z,100.00
2023-03-20T19:00:59.617Z,100.00
2023-03-20T19:03:29.803Z,100.00
2023-03-20T19:06:01.190Z,100.00
2023-03-20T19:08:34.133Z,100.00
2023-03-20T19:11:04.388Z,100.00
2023-03-20T19:13:34.357Z,100.00
2023-03-20T19:16:12.074Z,100.00
2023-03-20T19:18:41.748Z,100.00
2023-03-20T19:21:11.833Z,100.00
2023-03-20T19:23:41.501Z,100.00
2023-03-20T19:26:17.875Z,100.00
2023-03-20T19:28:48.914Z,100.00
2023-03-20T19:31:21.795Z,100.00
2023-03-20T19:33:51.931Z,100.00
2023-03-20T19:36:28.589Z,100.00
2023-03-20T19:38:59.759Z,100.00
2023-03-20T19:41:32.469Z,100.00
2023-03-20T19:44:02.396Z,100.00
2023-03-20T19:46:42.508Z,100.00
2023-03-20T19:49:19.603Z,100.00
2023-03-20T19:51:49.980Z,100.00
2023-03-20T19:54:20.310Z,100.00
2023-03-20T19:56:49.910Z,100.00
2023-03-20T19:59:21.080Z,100.00
2023-03-20T20:01:54.234Z,100.00
2023-03-20T20:04:24.630Z,100.00
2023-03-20T20:06:55.761Z,100.00
2023-03-20T20:09:32.578Z,100.00
2023-03-20T20:12:04.205Z,100.00
2023-03-20T20:14:35.245Z,100.00
2023-03-20T20:17:07.454Z,100.00
2023-03-20T20:19:37.066Z,100.00
2023-03-20T20:22:22.547Z,100.00
2023-03-20T20:24:54.335Z,100.00
2023-03-20T20:27:24.203Z,100.00
2023-03-20T20:29:56.294Z,100.00
2023-03-20T20:32:31.070Z,100.00
2023-03-20T20:38:36.681Z,100.00
2023-03-20T20:40:43.345Z,100.00
2023-03-20T20:43:34.615Z,100.00
2023-03-20T20:46:03.278Z,100.00
2023-03-20T20:48:37.674Z,100.00
2023-03-20T20:51:07.743Z,100.00
2023-03-20T20:53:37.596Z,100.00
2023-03-20T20:56:07.908Z,100.00
2023-03-20T20:58:38.008Z,100.00
2023-03-20T21:01:08.037Z,100.00
2023-03-20T21:03:40.300Z,100.00
2023-03-20T21:06:09.937Z,100.00
2023-03-20T21:08:39.797Z,100.00
2023-03-20T21:11:09.594Z,100.00
2023-03-20T21:13:39.188Z,100.00
2023-03-20T21:16:12.052Z,100.00
2023-03-20T21:18:45.123Z,100.00
2023-03-20T21:21:16.373Z,100.00
2023-03-20T21:23:46.430Z,100.00
2023-03-20T21:26:16.423Z,100.00
2023-03-20T21:28:46.381Z,100.00
2023-03-20T21:31:27.490Z,100.00
2023-03-20T21:34:01.807Z,100.00
2023-03-20T21:36:31.751Z,100.00
2023-03-20T21:39:08.440Z,100.00
2023-03-20T21:41:39.215Z,100.00
2023-03-20T21:44:16.710Z,100.00
2023-03-20T21:53:06.748Z,100.00
2023-03-20T21:56:29.321Z,100.00
2023-03-20T21:58:51.760Z,100.00
2023-03-20T22:01:39.619Z,100.00
2023-03-20T22:04:45.173Z,100.00
2023-03-20T22:18:50.895Z,100.00
2023-03-20T22:21:41.601Z,100.00
2023-03-20T22:24:38.102Z,100.00
2023-03-20T22:27:28.507Z,100.00
2023-03-20T22:30:12.390Z,100.00
2023-03-20T22:32:56.492Z,100.00
2023-03-20T22:46:45.231Z,100.00
2023-03-20T22:49:16.068Z,100.00
2023-03-20T22:52:04.732Z,100.00
2023-03-20T22:54:35.418Z,100.00
2023-03-20T22:57:07.637Z,100.00
2023-03-20T22:59:37.194Z,100.00
2023-03-20T23:02:06.958Z,100.00
2023-03-20T23:04:55.236Z,100.00
2023-03-20T23:07:44.456Z,100.00
2023-03-20T23:10:15.883Z,100.00
2023-03-20T23:12:48.113Z,100.00
2023-03-20T23:15:17.848Z,100.00
2023-03-20T23:17:47.670Z,100.00
2023-03-20T23:20:21.405Z,100.00
2023-03-20T23:22:51.350Z,100.00
2023-03-20T23:25:37.842Z,100.00
2023-03-20T23:28:12.230Z,100.00
2023-03-20T23:30:51.722Z,100.00
2023-03-20T23:33:26.192Z,100.00
2023-03-20T23:36:14.005Z,100.00
2023-03-20T23:38:48.592Z,100.00
2023-03-20T23:41:19.015Z,100.00
2023-03-20T23:43:52.626Z,100.00
2023-03-20T23:46:22.252Z,100.00
2023-03-20T23:48:51.889Z,100.00
2023-03-20T23:51:21.675Z,100.00
2023-03-20T23:53:51.268Z,100.00
2023-03-20T23:56:21.202Z,100.00
2023-03-20T23:59:01.163Z,100.00
